createdAt,value
2022-09-22T00:02:14.690Z,10.80
2022-09-22T00:12:46.696Z,10.70
2022-09-22T00:23:14.593Z,10.58
2022-09-22T00:33:42.763Z,10.68
2022-09-22T00:44:43.590Z,10.78
2022-09-22T00:55:17.132Z,10.81
2022-09-22T01:05:47.459Z,10.90
2022-09-22T01:16:27.080Z,10.90
2022-09-22T01:27:12.321Z,10.90
2022-09-22T01:37:50.318Z,10.75
2022-09-22T01:48:22.245Z,10.60
2022-09-22T01:58:53.899Z,10.53
2022-09-22T02:09:25.518Z,10.51
2022-09-22T02:19:53.648Z,10.46
2022-09-22T02:30:22.386Z,10.43
2022-09-22T02:41:01.362Z,10.34
2022-09-22T02:51:31.073Z,10.48
2022-09-22T03:01:59.042Z,10.69
2022-09-22T03:12:27.028Z,10.92
2022-09-22T03:22:54.834Z,10.76
2022-09-22T03:33:22.837Z,10.69
2022-09-22T03:43:50.979Z,10.72
2022-09-22T03:54:17.365Z,10.67
2022-09-22T04:04:45.269Z,10.53
2022-09-22T04:15:13.735Z,10.48
2022-09-22T04:25:41.956Z,10.50
2022-09-22T04:36:10.536Z,10.61
2022-09-22T04:46:38.413Z,10.68
2022-09-22T04:57:06.807Z,10.72
2022-09-22T05:07:34.753Z,10.76
2022-09-22T05:18:02.497Z,10.93
2022-09-22T05:28:30.362Z,11.00
2022-09-22T05:38:58.316Z,10.97
2022-09-22T05:49:26.330Z,10.98
2022-09-22T05:59:54.398Z,10.97
2022-09-22T06:10:22.432Z,10.96
2022-09-22T06:20:50.425Z,10.92
2022-09-22T06:31:18.564Z,10.76
2022-09-22T06:41:45.950Z,10.73
2022-09-22T06:52:15.323Z,10.84
2022-09-22T07:02:43.608Z,10.81
2022-09-22T07:13:10.852Z,10.93
2022-09-22T07:23:39.486Z,11.01
2022-09-22T07:34:07.550Z,11.25
2022-09-22T07:44:52.891Z,11.45
2022-09-22T07:55:22.327Z,11.52
2022-09-22T08:05:52.431Z,11.51
2022-09-22T08:16:20.918Z,11.57
2022-09-22T08:26:50.330Z,11.76
2022-09-22T08:37:18.274Z,11.87
2022-09-22T08:48:09.103Z,12.04
2022-09-22T08:58:49.776Z,12.16
2022-09-22T09:09:40.669Z,12.45
2022-09-22T09:20:19.449Z,12.53
2022-09-22T09:30:51.504Z,12.40
2022-09-22T09:41:23.734Z,12.38
2022-09-22T09:51:55.143Z,12.63
2022-09-22T10:02:27.596Z,12.92
2022-09-22T10:12:57.033Z,13.00
2022-09-22T10:23:29.145Z,12.89
2022-09-22T10:33:59.089Z,12.93
2022-09-22T10:44:38.663Z,12.99
2022-09-22T10:55:20.470Z,13.25
2022-09-22T11:06:18.506Z,13.42
2022-09-22T11:17:16.129Z,13.30
2022-09-22T11:28:00.101Z,13.20
2022-09-22T11:38:43.810Z,13.20
2022-09-22T11:49:25.746Z,13.19
2022-09-22T11:59:57.953Z,13.08
2022-09-22T12:10:38.183Z,13.04
2022-09-22T12:21:15.879Z,13.02
2022-09-22T12:31:47.516Z,12.86
2022-09-22T12:42:23.823Z,12.60
2022-09-22T12:53:06.650Z,12.58
2022-09-22T13:03:51.364Z,12.75
2022-09-22T13:14:49.663Z,12.99
2022-09-22T13:25:22.567Z,13.10
2022-09-22T13:35:57.306Z,13.20
2022-09-22T13:46:30.225Z,13.22
2022-09-22T13:56:59.678Z,13.26
2022-09-22T14:07:31.038Z,13.23
2022-09-22T14:17:59.569Z,13.14
2022-09-22T14:28:31.088Z,13.21
2022-09-22T14:39:10.167Z,13.27
2022-09-22T14:49:42.555Z,13.26
2022-09-22T15:00:36.025Z,13.27
2022-09-22T15:11:03.955Z,13.23
2022-09-22T15:21:35.233Z,13.19
2022-09-22T15:32:04.571Z,13.30
2022-09-22T15:42:32.609Z,13.41
2022-09-22T15:53:00.501Z,13.48
2022-09-22T16:03:28.670Z,13.33
2022-09-22T16:13:58.351Z,13.07
2022-09-22T16:24:28.697Z,12.94
2022-09-22T16:34:56.840Z,12.83
2022-09-22T16:45:38.735Z,12.83
2022-09-22T16:56:07.036Z,12.94
2022-09-22T17:06:36.304Z,13.14
2022-09-22T17:17:06.808Z,13.13
2022-09-22T17:27:34.754Z,13.11
2022-09-22T17:38:02.284Z,12.99
2022-09-22T17:48:47.935Z,12.88
2022-09-22T17:59:16.132Z,12.85
2022-09-22T18:09:44.665Z,12.70
2022-09-22T18:20:15.035Z,12.39
2022-09-22T18:30:43.526Z,12.34
2022-09-22T18:41:11.542Z,12.39
2022-09-22T18:51:42.764Z,12.36
2022-09-22T19:02:13.271Z,12.07
2022-09-22T19:12:41.495Z,11.93
2022-09-22T19:23:09.467Z,11.75
2022-09-22T19:33:37.672Z,11.62
2022-09-22T19:44:06.294Z,11.43
2022-09-22T19:54:34.507Z,11.14
2022-09-22T20:05:02.553Z,11.02
2022-09-22T20:15:30.475Z,11.01
2022-09-22T20:25:58.450Z,10.97
2022-09-22T20:36:26.533Z,11.01
2022-09-22T20:46:54.606Z,11.01
2022-09-22T20:57:22.611Z,11.07
2022-09-22T21:08:11.634Z,10.95
2022-09-22T21:18:41.003Z,10.88
2022-09-22T21:29:10.342Z,10.82
2022-09-22T21:39:38.176Z,10.78
2022-09-22T21:50:06.802Z,10.70
2022-09-22T22:00:51.083Z,10.73
2022-09-22T22:11:22.346Z,10.22
2022-09-22T22:21:51.487Z,10.02
2022-09-22T22:32:19.357Z,10.12
2022-09-22T22:42:47.406Z,10.29
2022-09-22T22:53:16.102Z,10.32
2022-09-22T23:03:46.158Z,10.51
2022-09-22T23:14:16.362Z,10.66
2022-09-22T23:24:44.626Z,10.77
2022-09-22T23:35:12.897Z,10.68
2022-09-22T23:45:40.915Z,10.16
2022-09-22T23:56:09.567Z,10.07
